sensor_id;sensor_type;location;lat;lon;timestamp;P1;durP1;ratioP1;P2;durP2;ratioP2
67065;SDS011;53978;43.846;25.952;2023-11-21T00:01:58;6.03;;;2.80;;
67065;SDS011;53978;43.846;25.952;2023-11-21T00:04:24;3.65;;;2.40;;
67065;SDS011;53978;43.846;25.952;2023-11-21T00:06:50;3.60;;;2.85;;
67065;SDS011;53978;43.846;25.952;2023-11-21T00:09:16;5.25;;;2.65;;
67065;SDS011;53978;43.846;25.952;2023-11-21T00:11:42;4.70;;;2.80;;
67065;SDS011;53978;43.846;25.952;2023-11-21T00:14:09;3.90;;;2.45;;
67065;SDS011;53978;43.846;25.952;2023-11-21T00:16:35;3.95;;;2.50;;
67065;SDS011;53978;43.846;25.952;2023-11-21T00:19:01;5.25;;;3.03;;
67065;SDS011;53978;43.846;25.952;2023-11-21T00:21:26;4.30;;;2.95;;
67065;SDS011;53978;43.846;25.952;2023-11-21T00:23:52;3.38;;;2.40;;
67065;SDS011;53978;43.846;25.952;2023-11-21T00:26:17;3.30;;;2.40;;
67065;SDS011;53978;43.846;25.952;2023-11-21T00:28:43;4.22;;;2.58;;
67065;SDS011;53978;43.846;25.952;2023-11-21T00:31:08;4.22;;;2.50;;
67065;SDS011;53978;43.846;25.952;2023-11-21T00:33:34;3.25;;;2.38;;
67065;SDS011;53978;43.846;25.952;2023-11-21T00:35:59;5.15;;;2.60;;
67065;SDS011;53978;43.846;25.952;2023-11-21T00:38:25;3.92;;;2.70;;
67065;SDS011;53978;43.846;25.952;2023-11-21T00:40:52;3.83;;;2.50;;
67065;SDS011;53978;43.846;25.952;2023-11-21T00:43:23;3.95;;;2.55;;
67065;SDS011;53978;43.846;25.952;2023-11-21T00:45:49;5.53;;;2.25;;
67065;SDS011;53978;43.846;25.952;2023-11-21T00:48:14;4.32;;;2.63;;
67065;SDS011;53978;43.846;25.952;2023-11-21T00:50:40;5.22;;;2.90;;
67065;SDS011;53978;43.846;25.952;2023-11-21T00:53:05;3.08;;;2.50;;
67065;SDS011;53978;43.846;25.952;2023-11-21T00:55:32;5.22;;;2.72;;
67065;SDS011;53978;43.846;25.952;2023-11-21T00:57:58;4.07;;;2.58;;
67065;SDS011;53978;43.846;25.952;2023-11-21T01:00:24;4.28;;;2.75;;
67065;SDS011;53978;43.846;25.952;2023-11-21T01:02:50;5.78;;;2.28;;
67065;SDS011;53978;43.846;25.952;2023-11-21T01:05:15;3.47;;;2.53;;
67065;SDS011;53978;43.846;25.952;2023-11-21T01:07:41;4.57;;;2.50;;
67065;SDS011;53978;43.846;25.952;2023-11-21T01:10:06;3.72;;;2.70;;
67065;SDS011;53978;43.846;25.952;2023-11-21T01:12:33;2.97;;;2.60;;
67065;SDS011;53978;43.846;25.952;2023-11-21T01:15:00;9.48;;;3.15;;
67065;SDS011;53978;43.846;25.952;2023-11-21T01:17:26;6.43;;;3.80;;
67065;SDS011;53978;43.846;25.952;2023-11-21T01:19:52;8.20;;;3.47;;
67065;SDS011;53978;43.846;25.952;2023-11-21T01:22:17;5.20;;;3.60;;
67065;SDS011;53978;43.846;25.952;2023-11-21T01:24:45;5.07;;;3.10;;
67065;SDS011;53978;43.846;25.952;2023-11-21T01:27:10;4.13;;;2.65;;
67065;SDS011;53978;43.846;25.952;2023-11-21T01:29:36;4.95;;;2.70;;
67065;SDS011;53978;43.846;25.952;2023-11-21T01:32:02;3.40;;;2.40;;
67065;SDS011;53978;43.846;25.952;2023-11-21T01:34:28;3.28;;;2.22;;
67065;SDS011;53978;43.846;25.952;2023-11-21T01:36:53;4.05;;;2.50;;
67065;SDS011;53978;43.846;25.952;2023-11-21T01:39:19;3.33;;;2.35;;
67065;SDS011;53978;43.846;25.952;2023-11-21T01:41:49;3.88;;;2.65;;
67065;SDS011;53978;43.846;25.952;2023-11-21T01:44:17;3.67;;;2.42;;
67065;SDS011;53978;43.846;25.952;2023-11-21T01:46:44;4.82;;;2.65;;
67065;SDS011;53978;43.846;25.952;2023-11-21T01:49:11;3.78;;;2.72;;
67065;SDS011;53978;43.846;25.952;2023-11-21T01:51:38;4.15;;;2.58;;
67065;SDS011;53978;43.846;25.952;2023-11-21T01:54:05;3.40;;;2.40;;
67065;SDS011;53978;43.846;25.952;2023-11-21T01:56:31;2.92;;;2.10;;
67065;SDS011;53978;43.846;25.952;2023-11-21T01:58:57;4.07;;;2.63;;
67065;SDS011;53978;43.846;25.952;2023-11-21T02:01:22;2.55;;;1.98;;
67065;SDS011;53978;43.846;25.952;2023-11-21T02:03:48;2.95;;;2.22;;
67065;SDS011;53978;43.846;25.952;2023-11-21T02:06:13;4.47;;;2.15;;
67065;SDS011;53978;43.846;25.952;2023-11-21T02:08:39;2.67;;;1.90;;
67065;SDS011;53978;43.846;25.952;2023-11-21T02:11:07;3.45;;;1.80;;
67065;SDS011;53978;43.846;25.952;2023-11-21T02:13:34;3.20;;;2.00;;
67065;SDS011;53978;43.846;25.952;2023-11-21T02:16:00;2.15;;;1.77;;
67065;SDS011;53978;43.846;25.952;2023-11-21T02:18:26;3.03;;;2.00;;
67065;SDS011;53978;43.846;25.952;2023-11-21T02:20:56;4.35;;;2.03;;
67065;SDS011;53978;43.846;25.952;2023-11-21T02:23:21;3.28;;;2.25;;
67065;SDS011;53978;43.846;25.952;2023-11-21T02:25:48;3.40;;;1.98;;
67065;SDS011;53978;43.846;25.952;2023-11-21T02:28:13;2.28;;;1.88;;
67065;SDS011;53978;43.846;25.952;2023-11-21T02:30:41;3.25;;;2.22;;
67065;SDS011;53978;43.846;25.952;2023-11-21T02:33:07;2.58;;;2.00;;
67065;SDS011;53978;43.846;25.952;2023-11-21T02:35:33;2.95;;;1.80;;
67065;SDS011;53978;43.846;25.952;2023-11-21T02:37:58;4.22;;;1.73;;
67065;SDS011;53978;43.846;25.952;2023-11-21T02:40:23;2.97;;;1.90;;
67065;SDS011;53978;43.846;25.952;2023-11-21T02:42:50;2.05;;;1.85;;
67065;SDS011;53978;43.846;25.952;2023-11-21T02:45:16;2.13;;;1.65;;
67065;SDS011;53978;43.846;25.952;2023-11-21T02:47:43;7.70;;;2.20;;
67065;SDS011;53978;43.846;25.952;2023-11-21T02:50:09;6.05;;;2.17;;
67065;SDS011;53978;43.846;25.952;2023-11-21T02:52:35;3.15;;;2.35;;
67065;SDS011;53978;43.846;25.952;2023-11-21T02:55:01;4.60;;;2.10;;
67065;SDS011;53978;43.846;25.952;2023-11-21T02:57:29;3.53;;;2.10;;
67065;SDS011;53978;43.846;25.952;2023-11-21T02:59:55;2.50;;;1.80;;
67065;SDS011;53978;43.846;25.952;2023-11-21T03:02:21;2.72;;;1.73;;
67065;SDS011;53978;43.846;25.952;2023-11-21T03:04:49;2.90;;;2.03;;
67065;SDS011;53978;43.846;25.952;2023-11-21T03:07:15;3.17;;;2.00;;
67065;SDS011;53978;43.846;25.952;2023-11-21T03:09:41;3.35;;;1.63;;
67065;SDS011;53978;43.846;25.952;2023-11-21T03:12:07;3.35;;;1.83;;
67065;SDS011;53978;43.846;25.952;2023-11-21T03:14:33;2.78;;;1.70;;
67065;SDS011;53978;43.846;25.952;2023-11-21T03:16:59;1.98;;;1.70;;
67065;SDS011;53978;43.846;25.952;2023-11-21T03:19:24;2.72;;;1.83;;
67065;SDS011;53978;43.846;25.952;2023-11-21T03:21:50;3.38;;;1.90;;
67065;SDS011;53978;43.846;25.952;2023-11-21T03:24:18;2.95;;;1.75;;
67065;SDS011;53978;43.846;25.952;2023-11-21T03:26:45;2.97;;;1.67;;
67065;SDS011;53978;43.846;25.952;2023-11-21T03:29:11;4.25;;;2.00;;
67065;SDS011;53978;43.846;25.952;2023-11-21T03:31:39;3.88;;;2.13;;
67065;SDS011;53978;43.846;25.952;2023-11-21T03:34:05;2.40;;;1.80;;
67065;SDS011;53978;43.846;25.952;2023-11-21T03:36:31;3.38;;;2.10;;
67065;SDS011;53978;43.846;25.952;2023-11-21T03:38:56;2.53;;;1.83;;
67065;SDS011;53978;43.846;25.952;2023-11-21T03:41:27;3.25;;;2.10;;
67065;SDS011;53978;43.846;25.952;2023-11-21T03:43:55;2.45;;;1.77;;
67065;SDS011;53978;43.846;25.952;2023-11-21T03:46:21;3.25;;;1.80;;
67065;SDS011;53978;43.846;25.952;2023-11-21T03:48:46;1.92;;;1.60;;
67065;SDS011;53978;43.846;25.952;2023-11-21T03:51:12;2.38;;;1.80;;
67065;SDS011;53978;43.846;25.952;2023-11-21T03:53:37;3.08;;;1.95;;
67065;SDS011;53978;43.846;25.952;2023-11-21T03:56:03;4.88;;;1.85;;
67065;SDS011;53978;43.846;25.952;2023-11-21T03:58:29;2.70;;;2.00;;
67065;SDS011;53978;43.846;25.952;2023-11-21T04:00:56;4.63;;;2.20;;
67065;SDS011;53978;43.846;25.952;2023-11-21T04:03:22;5.40;;;2.08;;
67065;SDS011;53978;43.846;25.952;2023-11-21T04:05:47;3.63;;;2.30;;
67065;SDS011;53978;43.846;25.952;2023-11-21T04:08:13;6.60;;;2.10;;
67065;SDS011;53978;43.846;25.952;2023-11-21T04:10:38;4.30;;;1.83;;
67065;SDS011;53978;43.846;25.952;2023-11-21T04:13:04;11.60;;;2.03;;
67065;SDS011;53978;43.846;25.952;2023-11-21T04:15:31;6.40;;;2.20;;
67065;SDS011;53978;43.846;25.952;2023-11-21T04:17:57;2.70;;;1.77;;
67065;SDS011;53978;43.846;25.952;2023-11-21T04:20:22;4.03;;;2.20;;
67065;SDS011;53978;43.846;25.952;2023-11-21T04:22:49;2.38;;;1.98;;
67065;SDS011;53978;43.846;25.952;2023-11-21T04:25:15;3.70;;;1.98;;
67065;SDS011;53978;43.846;25.952;2023-11-21T04:27:41;3.00;;;2.13;;
67065;SDS011;53978;43.846;25.952;2023-11-21T04:30:09;5.07;;;2.30;;
67065;SDS011;53978;43.846;25.952;2023-11-21T04:32:35;5.40;;;2.80;;
67065;SDS011;53978;43.846;25.952;2023-11-21T04:35:00;6.47;;;2.65;;
67065;SDS011;53978;43.846;25.952;2023-11-21T04:37:26;6.40;;;2.97;;
67065;SDS011;53978;43.846;25.952;2023-11-21T04:39:51;4.47;;;2.70;;
67065;SDS011;53978;43.846;25.952;2023-11-21T04:42:17;4.00;;;2.45;;
67065;SDS011;53978;43.846;25.952;2023-11-21T04:44:42;6.32;;;2.42;;
67065;SDS011;53978;43.846;25.952;2023-11-21T04:47:10;4.32;;;2.38;;
67065;SDS011;53978;43.846;25.952;2023-11-21T04:49:36;8.75;;;2.60;;
67065;SDS011;53978;43.846;25.952;2023-11-21T04:52:01;2.85;;;2.17;;
67065;SDS011;53978;43.846;25.952;2023-11-21T04:54:28;5.10;;;2.15;;
67065;SDS011;53978;43.846;25.952;2023-11-21T04:56:55;4.03;;;2.42;;
67065;SDS011;53978;43.846;25.952;2023-11-21T04:59:21;8.13;;;2.40;;
67065;SDS011;53978;43.846;25.952;2023-11-21T05:01:49;3.05;;;1.92;;
67065;SDS011;53978;43.846;25.952;2023-11-21T05:04:15;4.72;;;2.42;;
67065;SDS011;53978;43.846;25.952;2023-11-21T05:06:40;2.28;;;1.95;;
67065;SDS011;53978;43.846;25.952;2023-11-21T05:09:06;3.72;;;2.40;;
67065;SDS011;53978;43.846;25.952;2023-11-21T05:11:36;5.85;;;2.30;;
67065;SDS011;53978;43.846;25.952;2023-11-21T05:14:02;8.05;;;2.47;;
67065;SDS011;53978;43.846;25.952;2023-11-21T05:16:29;5.43;;;2.55;;
67065;SDS011;53978;43.846;25.952;2023-11-21T05:18:54;6.82;;;2.80;;
67065;SDS011;53978;43.846;25.952;2023-11-21T05:21:25;8.68;;;2.72;;
67065;SDS011;53978;43.846;25.952;2023-11-21T05:23:51;10.20;;;3.83;;
67065;SDS011;53978;43.846;25.952;2023-11-21T05:26:18;26.83;;;4.07;;
67065;SDS011;53978;43.846;25.952;2023-11-21T05:28:44;12.68;;;3.20;;
67065;SDS011;53978;43.846;25.952;2023-11-21T05:31:09;6.03;;;2.78;;
67065;SDS011;53978;43.846;25.952;2023-11-21T05:33:35;11.07;;;3.28;;
67065;SDS011;53978;43.846;25.952;2023-11-21T05:36:01;4.03;;;2.72;;
67065;SDS011;53978;43.846;25.952;2023-11-21T05:38:27;5.72;;;3.33;;
67065;SDS011;53978;43.846;25.952;2023-11-21T05:40:52;17.35;;;4.45;;
67065;SDS011;53978;43.846;25.952;2023-11-21T05:43:18;12.85;;;4.35;;
67065;SDS011;53978;43.846;25.952;2023-11-21T05:45:43;8.38;;;3.10;;
67065;SDS011;53978;43.846;25.952;2023-11-21T05:48:09;4.25;;;2.88;;
67065;SDS011;53978;43.846;25.952;2023-11-21T05:50:35;8.85;;;3.30;;
67065;SDS011;53978;43.846;25.952;2023-11-21T05:53:02;6.53;;;3.08;;
67065;SDS011;53978;43.846;25.952;2023-11-21T05:55:28;9.70;;;3.60;;
67065;SDS011;53978;43.846;25.952;2023-11-21T05:57:53;9.52;;;3.90;;
67065;SDS011;53978;43.846;25.952;2023-11-21T06:00:19;9.02;;;5.22;;
67065;SDS011;53978;43.846;25.952;2023-11-21T06:02:52;12.13;;;6.80;;
67065;SDS011;53978;43.846;25.952;2023-11-21T06:05:18;9.77;;;6.30;;
67065;SDS011;53978;43.846;25.952;2023-11-21T06:07:45;12.15;;;6.57;;
67065;SDS011;53978;43.846;25.952;2023-11-21T06:10:10;18.58;;;8.35;;
67065;SDS011;53978;43.846;25.952;2023-11-21T06:12:41;15.10;;;7.72;;
67065;SDS011;53978;43.846;25.952;2023-11-21T06:15:08;18.58;;;7.70;;
67065;SDS011;53978;43.846;25.952;2023-11-21T06:17:46;15.35;;;7.18;;
67065;SDS011;53978;43.846;25.952;2023-11-21T06:20:17;8.50;;;4.55;;
67065;SDS011;53978;43.846;25.952;2023-11-21T06:22:43;9.65;;;4.40;;
67065;SDS011;53978;43.846;25.952;2023-11-21T06:25:10;15.68;;;4.60;;
67065;SDS011;53978;43.846;25.952;2023-11-21T06:27:38;6.78;;;4.35;;
67065;SDS011;53978;43.846;25.952;2023-11-21T06:30:05;11.18;;;6.65;;
67065;SDS011;53978;43.846;25.952;2023-11-21T06:32:31;13.63;;;7.40;;
67065;SDS011;53978;43.846;25.952;2023-11-21T06:34:57;11.05;;;6.75;;
67065;SDS011;53978;43.846;25.952;2023-11-21T06:37:27;11.18;;;6.05;;
67065;SDS011;53978;43.846;25.952;2023-11-21T06:39:55;12.38;;;5.57;;
67065;SDS011;53978;43.846;25.952;2023-11-21T06:42:21;9.10;;;5.35;;
67065;SDS011;53978;43.846;25.952;2023-11-21T06:44:47;11.25;;;6.43;;
67065;SDS011;53978;43.846;25.952;2023-11-21T06:47:13;10.77;;;5.97;;
67065;SDS011;53978;43.846;25.952;2023-11-21T06:49:40;15.18;;;8.40;;
67065;SDS011;53978;43.846;25.952;2023-11-21T06:52:07;17.67;;;7.25;;
67065;SDS011;53978;43.846;25.952;2023-11-21T06:54:33;13.43;;;7.05;;
67065;SDS011;53978;43.846;25.952;2023-11-21T06:56:59;17.00;;;8.60;;
67065;SDS011;53978;43.846;25.952;2023-11-21T06:59:25;18.50;;;8.50;;
67065;SDS011;53978;43.846;25.952;2023-11-21T07:01:50;12.50;;;6.82;;
67065;SDS011;53978;43.846;25.952;2023-11-21T07:04:16;12.35;;;6.90;;
67065;SDS011;53978;43.846;25.952;2023-11-21T07:06:43;10.75;;;5.20;;
67065;SDS011;53978;43.846;25.952;2023-11-21T07:09:11;7.50;;;4.43;;
67065;SDS011;53978;43.846;25.952;2023-11-21T07:11:37;7.50;;;3.90;;
67065;SDS011;53978;43.846;25.952;2023-11-21T07:14:03;7.28;;;3.53;;
67065;SDS011;53978;43.846;25.952;2023-11-21T07:16:35;3.97;;;2.75;;
67065;SDS011;53978;43.846;25.952;2023-11-21T07:19:04;6.35;;;3.00;;
67065;SDS011;53978;43.846;25.952;2023-11-21T07:21:32;5.15;;;3.42;;
67065;SDS011;53978;43.846;25.952;2023-11-21T07:24:02;7.13;;;3.63;;
67065;SDS011;53978;43.846;25.952;2023-11-21T07:26:28;5.15;;;3.38;;
67065;SDS011;53978;43.846;25.952;2023-11-21T07:28:54;12.68;;;3.35;;
67065;SDS011;53978;43.846;25.952;2023-11-21T07:31:19;10.30;;;3.30;;
67065;SDS011;53978;43.846;25.952;2023-11-21T07:33:46;6.38;;;3.78;;
67065;SDS011;53978;43.846;25.952;2023-11-21T07:36:12;6.10;;;3.22;;
67065;SDS011;53978;43.846;25.952;2023-11-21T07:38:38;8.07;;;3.80;;
67065;SDS011;53978;43.846;25.952;2023-11-21T07:41:04;6.97;;;4.00;;
67065;SDS011;53978;43.846;25.952;2023-11-21T07:43:30;9.45;;;4.70;;
67065;SDS011;53978;43.846;25.952;2023-11-21T07:46:00;7.93;;;4.45;;
67065;SDS011;53978;43.846;25.952;2023-11-21T07:48:32;8.32;;;4.78;;
67065;SDS011;53978;43.846;25.952;2023-11-21T07:50:58;8.38;;;4.20;;
67065;SDS011;53978;43.846;25.952;2023-11-21T07:53:27;9.90;;;4.35;;
67065;SDS011;53978;43.846;25.952;2023-11-21T07:55:55;8.35;;;4.25;;
67065;SDS011;53978;43.846;25.952;2023-11-21T07:58:21;6.40;;;4.07;;
67065;SDS011;53978;43.846;25.952;2023-11-21T08:00:49;5.95;;;3.95;;
67065;SDS011;53978;43.846;25.952;2023-11-21T08:03:14;6.20;;;3.58;;
67065;SDS011;53978;43.846;25.952;2023-11-21T08:05:40;6.53;;;3.58;;
67065;SDS011;53978;43.846;25.952;2023-11-21T08:08:05;12.57;;;4.07;;
67065;SDS011;53978;43.846;25.952;2023-11-21T08:10:31;7.05;;;3.75;;
67065;SDS011;53978;43.846;25.952;2023-11-21T08:12:59;5.90;;;3.80;;
67065;SDS011;53978;43.846;25.952;2023-11-21T08:15:25;5.05;;;3.35;;
67065;SDS011;53978;43.846;25.952;2023-11-21T08:17:50;3.08;;;2.65;;
67065;SDS011;53978;43.846;25.952;2023-11-21T08:20:16;3.92;;;2.60;;
67065;SDS011;53978;43.846;25.952;2023-11-21T08:22:43;4.13;;;2.83;;
67065;SDS011;53978;43.846;25.952;2023-11-21T08:25:09;6.10;;;2.65;;
67065;SDS011;53978;43.846;25.952;2023-11-21T08:27:35;6.65;;;2.95;;
67065;SDS011;53978;43.846;25.952;2023-11-21T08:30:00;6.18;;;2.88;;
67065;SDS011;53978;43.846;25.952;2023-11-21T08:32:27;10.77;;;2.97;;
67065;SDS011;53978;43.846;25.952;2023-11-21T08:34:55;7.28;;;3.13;;
67065;SDS011;53978;43.846;25.952;2023-11-21T08:37:20;6.03;;;3.13;;
67065;SDS011;53978;43.846;25.952;2023-11-21T08:39:47;6.22;;;3.00;;
67065;SDS011;53978;43.846;25.952;2023-11-21T08:42:13;7.25;;;3.03;;
67065;SDS011;53978;43.846;25.952;2023-11-21T08:44:39;9.52;;;3.53;;
67065;SDS011;53978;43.846;25.952;2023-11-21T08:47:05;8.32;;;4.15;;
67065;SDS011;53978;43.846;25.952;2023-11-21T08:49:33;8.48;;;4.20;;
67065;SDS011;53978;43.846;25.952;2023-11-21T08:51:58;5.78;;;3.58;;
67065;SDS011;53978;43.846;25.952;2023-11-21T08:54:25;5.82;;;3.38;;
67065;SDS011;53978;43.846;25.952;2023-11-21T08:56:51;4.50;;;3.20;;
67065;SDS011;53978;43.846;25.952;2023-11-21T08:59:17;5.68;;;3.05;;
67065;SDS011;53978;43.846;25.952;2023-11-21T09:01:43;7.85;;;3.33;;
67065;SDS011;53978;43.846;25.952;2023-11-21T09:04:08;8.73;;;3.50;;
67065;SDS011;53978;43.846;25.952;2023-11-21T09:06:33;3.38;;;2.65;;
67065;SDS011;53978;43.846;25.952;2023-11-21T09:09:00;5.97;;;2.33;;
67065;SDS011;53978;43.846;25.952;2023-11-21T09:11:25;5.53;;;2.30;;
67065;SDS011;53978;43.846;25.952;2023-11-21T09:13:58;3.92;;;2.30;;
67065;SDS011;53978;43.846;25.952;2023-11-21T09:16:24;4.13;;;1.83;;
67065;SDS011;53978;43.846;25.952;2023-11-21T09:18:50;2.60;;;1.38;;
67065;SDS011;53978;43.846;25.952;2023-11-21T09:21:18;2.65;;;1.60;;
67065;SDS011;53978;43.846;25.952;2023-11-21T09:23:46;2.60;;;1.65;;
67065;SDS011;53978;43.846;25.952;2023-11-21T09:26:13;3.72;;;1.73;;
67065;SDS011;53978;43.846;25.952;2023-11-21T09:28:41;7.90;;;2.70;;
67065;SDS011;53978;43.846;25.952;2023-11-21T09:31:08;3.28;;;2.13;;
67065;SDS011;53978;43.846;25.952;2023-11-21T09:33:34;3.42;;;2.00;;
67065;SDS011;53978;43.846;25.952;2023-11-21T09:36:00;2.25;;;1.50;;
67065;SDS011;53978;43.846;25.952;2023-11-21T09:38:26;5.82;;;1.60;;
67065;SDS011;53978;43.846;25.952;2023-11-21T09:40:54;2.50;;;1.73;;
67065;SDS011;53978;43.846;25.952;2023-11-21T09:43:20;2.70;;;1.88;;
67065;SDS011;53978;43.846;25.952;2023-11-21T09:45:47;2.13;;;1.73;;
67065;SDS011;53978;43.846;25.952;2023-11-21T09:48:18;3.83;;;1.85;;
67065;SDS011;53978;43.846;25.952;2023-11-21T09:50:45;1.98;;;1.45;;
67065;SDS011;53978;43.846;25.952;2023-11-21T09:53:18;8.05;;;2.28;;
67065;SDS011;53978;43.846;25.952;2023-11-21T09:55:50;3.05;;;1.60;;
67065;SDS011;53978;43.846;25.952;2023-11-21T09:58:17;2.25;;;1.50;;
67065;SDS011;53978;43.846;25.952;2023-11-21T10:00:45;2.28;;;1.90;;
67065;SDS011;53978;43.846;25.952;2023-11-21T10:03:11;2.60;;;1.77;;
67065;SDS011;53978;43.846;25.952;2023-11-21T10:05:37;2.60;;;1.75;;
67065;SDS011;53978;43.846;25.952;2023-11-21T10:08:07;3.15;;;1.83;;
67065;SDS011;53978;43.846;25.952;2023-11-21T10:10:35;3.92;;;1.55;;
67065;SDS011;53978;43.846;25.952;2023-11-21T10:13:02;2.22;;;1.38;;
67065;SDS011;53978;43.846;25.952;2023-11-21T10:15:31;2.67;;;1.30;;
67065;SDS011;53978;43.846;25.952;2023-11-21T10:18:02;6.07;;;1.70;;
67065;SDS011;53978;43.846;25.952;2023-11-21T10:20:29;1.52;;;1.17;;
67065;SDS011;53978;43.846;25.952;2023-11-21T10:22:58;3.25;;;1.13;;
67065;SDS011;53978;43.846;25.952;2023-11-21T10:25:26;2.65;;;1.25;;
67065;SDS011;53978;43.846;25.952;2023-11-21T10:27:54;2.20;;;1.30;;
67065;SDS011;53978;43.846;25.952;2023-11-21T10:30:22;2.03;;;1.20;;
67065;SDS011;53978;43.846;25.952;2023-11-21T10:32:50;1.48;;;1.33;;
67065;SDS011;53978;43.846;25.952;2023-11-21T10:35:15;2.55;;;1.58;;
67065;SDS011;53978;43.846;25.952;2023-11-21T10:37:43;2.72;;;1.33;;
67065;SDS011;53978;43.846;25.952;2023-11-21T10:40:09;1.92;;;1.55;;
67065;SDS011;53978;43.846;25.952;2023-11-21T10:42:39;1.83;;;1.38;;
67065;SDS011;53978;43.846;25.952;2023-11-21T10:45:05;1.52;;;1.27;;
67065;SDS011;53978;43.846;25.952;2023-11-21T10:47:40;1.67;;;1.25;;
67065;SDS011;53978;43.846;25.952;2023-11-21T10:50:07;1.88;;;1.52;;
67065;SDS011;53978;43.846;25.952;2023-11-21T10:52:36;1.77;;;1.10;;
67065;SDS011;53978;43.846;25.952;2023-11-21T10:55:17;1.92;;;1.55;;
67065;SDS011;53978;43.846;25.952;2023-11-21T10:58:08;1.58;;;1.38;;
67065;SDS011;53978;43.846;25.952;2023-11-21T11:00:35;1.38;;;1.17;;
67065;SDS011;53978;43.846;25.952;2023-11-21T11:03:01;1.42;;;1.10;;
67065;SDS011;53978;43.846;25.952;2023-11-21T11:05:28;5.10;;;1.15;;
67065;SDS011;53978;43.846;25.952;2023-11-21T11:07:58;1.77;;;1.17;;
67065;SDS011;53978;43.846;25.952;2023-11-21T11:10:27;2.92;;;1.13;;
67065;SDS011;53978;43.846;25.952;2023-11-21T11:12:56;4.10;;;1.20;;
67065;SDS011;53978;43.846;25.952;2023-11-21T11:15:22;2.53;;;1.35;;
67065;SDS011;53978;43.846;25.952;2023-11-21T11:17:48;2.53;;;1.20;;
67065;SDS011;53978;43.846;25.952;2023-11-21T11:20:15;1.38;;;1.00;;
67065;SDS011;53978;43.846;25.952;2023-11-21T11:28:15;3.47;;;1.40;;
67065;SDS011;53978;43.846;25.952;2023-11-21T11:38:27;4.68;;;1.65;;
67065;SDS011;53978;43.846;25.952;2023-11-21T11:40:57;7.13;;;2.72;;
67065;SDS011;53978;43.846;25.952;2023-11-21T11:43:27;4.43;;;2.10;;
67065;SDS011;53978;43.846;25.952;2023-11-21T11:45:56;2.15;;;1.50;;
67065;SDS011;53978;43.846;25.952;2023-11-21T11:48:24;7.65;;;1.90;;
67065;SDS011;53978;43.846;25.952;2023-11-21T11:53:39;7.22;;;2.20;;
67065;SDS011;53978;43.846;25.952;2023-11-21T11:56:27;2.63;;;1.50;;
67065;SDS011;53978;43.846;25.952;2023-11-21T11:58:56;1.70;;;1.35;;
67065;SDS011;53978;43.846;25.952;2023-11-21T12:01:23;2.03;;;1.27;;
67065;SDS011;53978;43.846;25.952;2023-11-21T12:06:42;1.52;;;1.05;;
67065;SDS011;53978;43.846;25.952;2023-11-21T12:09:29;1.92;;;1.23;;
67065;SDS011;53978;43.846;25.952;2023-11-21T12:11:55;1.20;;;1.10;;
67065;SDS011;53978;43.846;25.952;2023-11-21T12:14:23;3.22;;;1.20;;
67065;SDS011;53978;43.846;25.952;2023-11-21T12:16:51;1.98;;;1.30;;
67065;SDS011;53978;43.846;25.952;2023-11-21T12:19:17;1.73;;;1.30;;
67065;SDS011;53978;43.846;25.952;2023-11-21T12:21:43;2.30;;;1.48;;
67065;SDS011;53978;43.846;25.952;2023-11-21T12:24:13;3.28;;;1.48;;
67065;SDS011;53978;43.846;25.952;2023-11-21T12:26:39;3.47;;;1.92;;
67065;SDS011;53978;43.846;25.952;2023-11-21T12:29:05;1.20;;;1.10;;
67065;SDS011;53978;43.846;25.952;2023-11-21T12:31:32;1.20;;;1.10;;
67065;SDS011;53978;43.846;25.952;2023-11-21T12:33:59;3.90;;;1.38;;
67065;SDS011;53978;43.846;25.952;2023-11-21T12:36:25;2.17;;;1.30;;
67065;SDS011;53978;43.846;25.952;2023-11-21T12:38:51;2.08;;;1.38;;
67065;SDS011;53978;43.846;25.952;2023-11-21T12:41:16;5.68;;;1.33;;
67065;SDS011;53978;43.846;25.952;2023-11-21T12:43:46;2.85;;;1.67;;
67065;SDS011;53978;43.846;25.952;2023-11-21T12:46:12;2.08;;;1.10;;
67065;SDS011;53978;43.846;25.952;2023-11-21T12:48:42;1.98;;;1.52;;
67065;SDS011;53978;43.846;25.952;2023-11-21T12:51:09;5.38;;;1.90;;
67065;SDS011;53978;43.846;25.952;2023-11-21T12:53:35;3.38;;;1.70;;
67065;SDS011;53978;43.846;25.952;2023-11-21T12:56:07;3.05;;;1.70;;
67065;SDS011;53978;43.846;25.952;2023-11-21T12:58:42;3.08;;;1.58;;
67065;SDS011;53978;43.846;25.952;2023-11-21T13:01:15;3.22;;;1.85;;
67065;SDS011;53978;43.846;25.952;2023-11-21T13:03:45;2.13;;;1.33;;
67065;SDS011;53978;43.846;25.952;2023-11-21T13:06:13;4.20;;;1.90;;
67065;SDS011;53978;43.846;25.952;2023-11-21T13:08:40;4.47;;;2.38;;
67065;SDS011;53978;43.846;25.952;2023-11-21T13:11:05;7.60;;;3.17;;
67065;SDS011;53978;43.846;25.952;2023-11-21T13:13:31;4.75;;;2.78;;
67065;SDS011;53978;43.846;25.952;2023-11-21T13:15:57;6.50;;;2.80;;
67065;SDS011;53978;43.846;25.952;2023-11-21T13:18:29;6.20;;;2.13;;
67065;SDS011;53978;43.846;25.952;2023-11-21T13:20:59;4.65;;;1.70;;
67065;SDS011;53978;43.846;25.952;2023-11-21T13:23:28;2.83;;;1.52;;
67065;SDS011;53978;43.846;25.952;2023-11-21T13:25:57;4.63;;;2.00;;
67065;SDS011;53978;43.846;25.952;2023-11-21T13:28:23;3.50;;;1.77;;
67065;SDS011;53978;43.846;25.952;2023-11-21T13:30:49;4.15;;;1.65;;
67065;SDS011;53978;43.846;25.952;2023-11-21T13:33:17;4.53;;;1.90;;
67065;SDS011;53978;43.846;25.952;2023-11-21T13:35:46;5.03;;;2.10;;
67065;SDS011;53978;43.846;25.952;2023-11-21T13:38:16;6.22;;;2.42;;
67065;SDS011;53978;43.846;25.952;2023-11-21T13:40:48;9.88;;;2.78;;
67065;SDS011;53978;43.846;25.952;2023-11-21T13:43:20;6.82;;;3.00;;
67065;SDS011;53978;43.846;25.952;2023-11-21T13:45:49;14.73;;;7.45;;
67065;SDS011;53978;43.846;25.952;2023-11-21T13:48:23;18.77;;;7.03;;
67065;SDS011;53978;43.846;25.952;2023-11-21T13:51:06;11.13;;;4.55;;
67065;SDS011;53978;43.846;25.952;2023-11-21T13:53:48;10.82;;;3.08;;
67065;SDS011;53978;43.846;25.952;2023-11-21T13:56:19;6.63;;;2.95;;
67065;SDS011;53978;43.846;25.952;2023-11-21T13:58:48;5.55;;;2.40;;
67065;SDS011;53978;43.846;25.952;2023-11-21T14:01:21;5.50;;;2.45;;
67065;SDS011;53978;43.846;25.952;2023-11-21T14:03:59;6.38;;;2.40;;
67065;SDS011;53978;43.846;25.952;2023-11-21T14:06:38;5.68;;;2.20;;
67065;SDS011;53978;43.846;25.952;2023-11-21T14:09:13;8.75;;;2.60;;
67065;SDS011;53978;43.846;25.952;2023-11-21T14:11:55;4.88;;;2.47;;
67065;SDS011;53978;43.846;25.952;2023-11-21T14:14:23;3.55;;;2.13;;
67065;SDS011;53978;43.846;25.952;2023-11-21T14:16:53;8.38;;;2.80;;
67065;SDS011;53978;43.846;25.952;2023-11-21T14:19:18;6.18;;;2.50;;
67065;SDS011;53978;43.846;25.952;2023-11-21T14:21:44;6.75;;;2.40;;
67065;SDS011;53978;43.846;25.952;2023-11-21T14:24:13;7.13;;;2.47;;
67065;SDS011;53978;43.846;25.952;2023-11-21T14:26:42;5.75;;;3.33;;
67065;SDS011;53978;43.846;25.952;2023-11-21T14:29:10;12.00;;;3.60;;
67065;SDS011;53978;43.846;25.952;2023-11-21T14:31:39;5.75;;;3.10;;
67065;SDS011;53978;43.846;25.952;2023-11-21T14:34:04;11.80;;;3.28;;
67065;SDS011;53978;43.846;25.952;2023-11-21T14:36:34;6.97;;;3.20;;
67065;SDS011;53978;43.846;25.952;2023-11-21T14:39:01;11.98;;;3.67;;
67065;SDS011;53978;43.846;25.952;2023-11-21T14:41:28;7.88;;;3.05;;
67065;SDS011;53978;43.846;25.952;2023-11-21T14:43:54;4.97;;;3.17;;
67065;SDS011;53978;43.846;25.952;2023-11-21T14:46:22;7.90;;;4.43;;
67065;SDS011;53978;43.846;25.952;2023-11-21T14:48:47;12.77;;;3.92;;
67065;SDS011;53978;43.846;25.952;2023-11-21T14:51:24;8.85;;;4.32;;
67065;SDS011;53978;43.846;25.952;2023-11-21T14:53:56;8.48;;;3.80;;